createdAt,value
2023-01-11T00:00:16.318Z,0.00
2023-01-11T00:01:16.283Z,0.00
2023-01-11T00:02:16.340Z,0.00
2023-01-11T00:03:16.275Z,0.00
2023-01-11T00:04:16.301Z,0.00
2023-01-11T00:05:16.269Z,0.00
2023-01-11T00:06:16.271Z,0.00
2023-01-11T00:07:16.196Z,0.00
2023-01-11T00:08:16.259Z,0.00
2023-01-11T00:09:16.180Z,0.00
2023-01-11T00:10:16.202Z,0.00
2023-01-11T00:11:16.170Z,0.00
2023-01-11T00:12:16.184Z,0.00
2023-01-11T00:13:16.131Z,0.00
2023-01-11T00:14:16.127Z,0.00
2023-01-11T00:15:16.124Z,0.00
2023-01-11T00:16:16.211Z,0.00
2023-01-11T00:17:16.094Z,0.00
2023-01-11T00:18:16.140Z,0.00
2023-01-11T00:19:16.067Z,0.00
2023-01-11T00:20:16.064Z,0.00
2023-01-11T00:21:16.108Z,0.00
2023-01-11T00:22:16.066Z,0.00
2023-01-11T00:23:16.063Z,0.00
2023-01-11T00:24:16.034Z,0.00
2023-01-11T00:25:15.997Z,0.00
2023-01-11T00:26:16.011Z,0.00
2023-01-11T00:27:16.015Z,0.00
2023-01-11T00:28:15.991Z,0.00
2023-01-11T00:29:16.011Z,0.00
2023-01-11T00:30:15.948Z,0.00
2023-01-11T00:31:15.991Z,0.00
2023-01-11T00:32:15.943Z,0.00
2023-01-11T00:33:15.944Z,0.00
2023-01-11T00:34:15.944Z,0.00
2023-01-11T00:35:15.899Z,0.00
2023-01-11T00:36:16.045Z,0.00
2023-01-11T00:37:15.873Z,0.00
2023-01-11T00:38:15.878Z,0.00
2023-01-11T00:39:15.892Z,0.00
2023-01-11T00:40:15.869Z,0.00
2023-01-11T00:41:15.842Z,0.00
2023-01-11T00:42:15.808Z,0.00
2023-01-11T00:43:15.827Z,0.00
2023-01-11T00:44:15.823Z,0.00
2023-01-11T00:45:15.804Z,0.00
2023-01-11T00:46:15.864Z,0.00
2023-01-11T00:47:15.759Z,0.00
2023-01-11T00:48:15.763Z,0.00
2023-01-11T00:49:15.761Z,0.00
2023-01-11T00:50:15.734Z,0.00
2023-01-11T00:51:15.742Z,0.00
2023-01-11T00:52:15.744Z,0.00
2023-01-11T00:53:15.688Z,0.00
2023-01-11T00:54:15.746Z,0.00
2023-01-11T00:55:15.686Z,0.00
2023-01-11T00:56:15.687Z,0.00
2023-01-11T00:57:15.668Z,0.00
2023-01-11T00:58:15.646Z,0.00
2023-01-11T00:59:15.720Z,0.00
2023-01-11T01:00:15.651Z,0.00
2023-01-11T01:01:15.717Z,0.00
2023-01-11T01:02:15.647Z,0.00
2023-01-11T01:03:15.630Z,0.00
2023-01-11T01:04:15.582Z,0.00
2023-01-11T01:05:15.600Z,0.00
2023-01-11T01:06:15.570Z,0.00
2023-01-11T01:07:15.544Z,0.00
2023-01-11T01:08:15.541Z,0.00
2023-01-11T01:09:15.543Z,0.00
2023-01-11T01:10:15.534Z,0.00
2023-01-11T01:11:15.567Z,0.00
2023-01-11T01:12:15.478Z,0.00
2023-01-11T01:13:15.509Z,0.00
2023-01-11T01:14:15.484Z,0.00
2023-01-11T01:15:15.456Z,0.00
2023-01-11T01:16:15.525Z,0.00
2023-01-11T01:17:15.433Z,0.00
2023-01-11T01:18:15.431Z,0.00
2023-01-11T01:19:15.530Z,0.00
2023-01-11T01:20:15.424Z,0.00
2023-01-11T01:21:15.434Z,0.00
2023-01-11T01:22:15.435Z,0.00
2023-01-11T01:23:15.374Z,0.00
2023-01-11T01:24:15.358Z,0.00
2023-01-11T01:25:15.356Z,0.00
2023-01-11T01:26:15.377Z,0.00
2023-01-11T01:27:15.314Z,0.00
2023-01-11T01:28:15.304Z,0.00
2023-01-11T01:29:15.292Z,0.00
2023-01-11T01:30:15.296Z,0.00
2023-01-11T01:31:15.426Z,0.00
2023-01-11T01:32:15.300Z,0.00
2023-01-11T01:33:15.246Z,0.00
2023-01-11T01:34:15.254Z,0.00
2023-01-11T01:35:15.230Z,0.00
2023-01-11T01:36:15.239Z,0.00
2023-01-11T01:37:15.234Z,0.00
2023-01-11T01:38:15.242Z,0.00
2023-01-11T01:39:15.187Z,0.00
2023-01-11T01:40:15.187Z,0.00
2023-01-11T01:41:15.166Z,0.00
2023-01-11T01:42:15.165Z,0.00
2023-01-11T01:43:15.182Z,0.00
2023-01-11T01:44:15.185Z,0.00
2023-01-11T01:45:15.119Z,0.00
2023-01-11T01:46:15.159Z,0.00
2023-01-11T01:47:15.128Z,0.00
2023-01-11T01:48:15.084Z,0.00
2023-01-11T01:49:15.120Z,0.00
2023-01-11T01:50:15.075Z,0.00
2023-01-11T01:51:15.058Z,0.00
2023-01-11T01:52:15.069Z,0.00
2023-01-11T01:53:15.052Z,0.00
2023-01-11T01:54:15.037Z,0.00
2023-01-11T01:55:15.009Z,0.00
2023-01-11T01:56:14.994Z,0.00
2023-01-11T01:57:15.078Z,0.00
2023-01-11T01:58:14.996Z,0.00
2023-01-11T01:59:14.981Z,0.00
2023-01-11T02:00:14.975Z,0.00
2023-01-11T02:01:14.936Z,0.00
2023-01-11T02:02:14.930Z,0.00
2023-01-11T02:03:14.930Z,0.00
2023-01-11T02:04:14.917Z,0.00
2023-01-11T02:05:14.941Z,0.00
2023-01-11T02:06:14.915Z,0.00
2023-01-11T02:07:14.900Z,0.00
2023-01-11T02:08:14.871Z,0.00
2023-01-11T02:09:14.887Z,0.00
2023-01-11T02:10:14.857Z,0.00
2023-01-11T02:11:14.878Z,0.00
2023-01-11T02:12:14.858Z,0.00
2023-01-11T02:13:14.884Z,0.00
2023-01-11T02:14:14.839Z,0.00
2023-01-11T02:15:14.791Z,0.00
2023-01-11T02:16:14.857Z,0.00
2023-01-11T02:17:14.843Z,0.00
2023-01-11T02:18:14.835Z,0.00
2023-01-11T02:19:14.749Z,0.00
2023-01-11T02:20:14.813Z,0.00
2023-01-11T02:21:14.724Z,0.00
2023-01-11T02:22:14.728Z,0.00
2023-01-11T02:23:14.725Z,0.00
2023-01-11T02:24:14.708Z,0.00
2023-01-11T02:25:14.687Z,0.00
2023-01-11T02:26:14.672Z,0.00
2023-01-11T02:27:14.668Z,0.00
2023-01-11T02:28:14.800Z,0.00
2023-01-11T02:29:14.666Z,0.00
2023-01-11T02:30:14.638Z,0.00
2023-01-11T02:31:14.652Z,0.00
2023-01-11T02:32:14.600Z,0.00
2023-01-11T02:33:14.611Z,0.00
2023-01-11T02:34:14.608Z,0.00
2023-01-11T02:35:14.576Z,0.00
2023-01-11T02:36:14.559Z,0.00
2023-01-11T02:37:14.540Z,0.00
2023-01-11T02:38:14.627Z,0.00
2023-01-11T02:39:14.543Z,0.00
2023-01-11T02:40:14.553Z,0.00
2023-01-11T02:41:14.527Z,0.00
2023-01-11T02:42:14.496Z,0.00
2023-01-11T02:43:14.503Z,0.00
2023-01-11T02:44:14.481Z,0.00
2023-01-11T02:45:14.490Z,0.00
2023-01-11T02:46:14.519Z,0.00
2023-01-11T02:47:14.429Z,0.00
2023-01-11T02:48:14.440Z,0.00
2023-01-11T02:49:14.443Z,0.00
2023-01-11T02:50:14.415Z,0.00
2023-01-11T02:51:14.661Z,0.00
2023-01-11T02:52:14.390Z,0.00
2023-01-11T02:53:14.373Z,0.00
2023-01-11T02:54:14.375Z,0.00
2023-01-11T02:55:14.347Z,0.00
2023-01-11T02:56:14.393Z,0.00
2023-01-11T02:57:14.359Z,0.00
2023-01-11T02:58:14.327Z,0.00
2023-01-11T02:59:14.332Z,0.00
2023-01-11T03:00:14.286Z,0.00
2023-01-11T03:01:14.293Z,0.00
2023-01-11T03:02:14.310Z,0.00
2023-01-11T03:03:14.362Z,0.00
2023-01-11T03:04:14.242Z,0.00
2023-01-11T03:05:14.255Z,0.00
2023-01-11T03:06:14.256Z,0.00
2023-01-11T03:07:14.241Z,0.00
2023-01-11T03:08:14.233Z,0.00
2023-01-11T03:09:14.229Z,0.00
2023-01-11T03:10:14.204Z,0.00
2023-01-11T03:11:14.208Z,0.00
2023-01-11T03:12:14.182Z,0.00
2023-01-11T03:13:14.159Z,0.00
2023-01-11T03:14:14.182Z,0.00
2023-01-11T03:15:14.174Z,0.00
2023-01-11T03:16:14.189Z,0.00
2023-01-11T03:17:14.128Z,0.00
2023-01-11T03:18:14.112Z,0.00
2023-01-11T03:19:14.113Z,0.00
2023-01-11T03:20:14.107Z,0.00
2023-01-11T03:21:14.056Z,0.00
2023-01-11T03:22:14.060Z,0.00
2023-01-11T03:23:14.059Z,0.00
2023-01-11T03:24:14.034Z,0.00
2023-01-11T03:25:14.039Z,0.00
2023-01-11T03:26:14.046Z,0.00
2023-01-11T03:27:14.009Z,0.00
2023-01-11T03:28:14.001Z,0.00
2023-01-11T03:29:13.974Z,0.00
2023-01-11T03:30:13.973Z,0.00
2023-01-11T03:31:14.042Z,0.00
2023-01-11T03:32:13.978Z,0.00
2023-01-11T03:33:13.934Z,0.00
2023-01-11T03:34:13.938Z,0.00
2023-01-11T03:35:13.910Z,0.00
2023-01-11T03:36:13.919Z,0.00
2023-01-11T03:37:13.923Z,0.00
2023-01-11T03:38:13.868Z,0.00
2023-01-11T03:39:13.918Z,0.00
2023-01-11T03:40:13.893Z,0.00
2023-01-11T03:41:13.849Z,0.00
2023-01-11T03:42:13.852Z,0.00
2023-01-11T03:43:13.858Z,0.00
2023-01-11T03:44:13.805Z,0.00
2023-01-11T03:45:13.801Z,0.00
2023-01-11T03:46:13.808Z,0.00
2023-01-11T03:47:13.780Z,0.00
2023-01-11T03:48:13.786Z,0.00
2023-01-11T03:49:13.746Z,0.00
2023-01-11T03:50:13.797Z,0.00
2023-01-11T03:51:13.731Z,0.00
2023-01-11T03:52:13.745Z,0.00
2023-01-11T03:53:13.720Z,0.00
2023-01-11T03:54:13.719Z,0.00
2023-01-11T03:55:13.678Z,0.00
2023-01-11T03:56:13.734Z,0.00
2023-01-11T03:57:13.665Z,0.00
2023-01-11T03:58:13.680Z,0.00
2023-01-11T03:59:13.660Z,0.00
2023-01-11T04:00:13.630Z,0.00
2023-01-11T04:01:13.700Z,0.00
2023-01-11T04:02:13.681Z,0.00
2023-01-11T04:03:13.595Z,0.00
2023-01-11T04:04:13.625Z,0.00
2023-01-11T04:05:13.603Z,0.00
2023-01-11T04:06:13.632Z,0.00
2023-01-11T04:07:13.543Z,0.00
2023-01-11T04:08:13.588Z,0.00
2023-01-11T04:09:13.523Z,0.00
2023-01-11T04:10:13.529Z,0.00
2023-01-11T04:11:13.547Z,0.00
2023-01-11T04:12:13.542Z,0.00
2023-01-11T04:13:13.476Z,0.00
2023-01-11T04:14:13.497Z,0.00
2023-01-11T04:15:13.470Z,0.00
2023-01-11T04:16:13.488Z,0.00
2023-01-11T04:17:13.463Z,0.00
2023-01-11T04:18:13.427Z,0.00
2023-01-11T04:19:13.415Z,0.00
2023-01-11T04:20:13.505Z,0.00
2023-01-11T04:21:13.489Z,0.00
2023-01-11T04:22:13.431Z,0.00
2023-01-11T04:23:13.406Z,0.00
2023-01-11T04:24:13.379Z,0.00
2023-01-11T04:25:13.361Z,0.00
2023-01-11T04:26:13.333Z,0.00
2023-01-11T04:27:13.358Z,0.00
2023-01-11T04:28:13.342Z,0.00
2023-01-11T04:29:13.349Z,0.00
2023-01-11T04:30:13.326Z,0.00
2023-01-11T04:31:13.369Z,0.00
2023-01-11T04:32:13.684Z,0.00
2023-01-11T04:33:13.349Z,0.00
2023-01-11T04:34:13.276Z,0.00
2023-01-11T04:35:13.258Z,0.00
2023-01-11T04:36:13.296Z,0.00
2023-01-11T04:37:13.213Z,0.00
2023-01-11T04:38:13.250Z,0.00
2023-01-11T04:39:13.257Z,0.00
2023-01-11T04:40:13.217Z,0.00
2023-01-11T04:41:13.216Z,0.00
2023-01-11T04:42:13.175Z,0.00
2023-01-11T04:43:13.244Z,0.00
2023-01-11T04:44:13.185Z,0.00
2023-01-11T04:45:13.158Z,0.00
2023-01-11T04:46:13.131Z,0.00
2023-01-11T04:47:13.099Z,0.00
2023-01-11T04:48:13.106Z,0.00
2023-01-11T04:49:13.188Z,0.00
2023-01-11T04:50:13.151Z,0.00
2023-01-11T04:51:13.082Z,0.00
2023-01-11T04:52:13.072Z,0.00
2023-01-11T04:53:13.034Z,0.00
2023-01-11T04:54:13.086Z,0.00
2023-01-11T04:55:13.027Z,0.00
2023-01-11T04:56:13.028Z,0.00
2023-01-11T04:57:13.030Z,0.00
2023-01-11T04:58:12.995Z,0.00
2023-01-11T04:59:12.993Z,0.00
2023-01-11T05:00:12.970Z,0.00
2023-01-11T05:01:13.022Z,0.00
2023-01-11T05:02:12.964Z,0.00
2023-01-11T05:03:12.925Z,0.00
2023-01-11T05:04:13.667Z,0.00
2023-01-11T05:05:21.722Z,0.00
2023-01-11T05:06:12.944Z,0.00
2023-01-11T05:07:12.909Z,0.00
2023-01-11T05:08:12.909Z,0.00
2023-01-11T05:09:12.856Z,0.00
2023-01-11T05:10:12.871Z,0.00
2023-01-11T05:11:12.866Z,0.00
2023-01-11T05:12:12.829Z,0.00
2023-01-11T05:13:12.834Z,0.00
2023-01-11T05:14:12.844Z,0.00
2023-01-11T05:15:12.796Z,0.00
2023-01-11T05:16:12.831Z,0.00
2023-01-11T05:17:12.771Z,0.00
2023-01-11T05:18:12.802Z,0.00
2023-01-11T05:19:12.783Z,0.00
2023-01-11T05:20:12.785Z,0.00
2023-01-11T05:21:12.723Z,0.00
2023-01-11T05:22:12.727Z,0.00
2023-01-11T05:23:12.716Z,0.00
2023-01-11T05:24:12.733Z,0.00
2023-01-11T05:25:12.715Z,0.00
2023-01-11T05:26:12.727Z,0.00
2023-01-11T05:27:12.655Z,0.00
2023-01-11T05:28:12.680Z,0.00
2023-01-11T05:29:12.676Z,0.00
2023-01-11T05:30:12.648Z,0.00
2023-01-11T05:31:12.663Z,0.00
2023-01-11T05:32:12.610Z,0.00
2023-01-11T05:33:12.589Z,0.00
2023-01-11T05:34:12.608Z,0.00
2023-01-11T05:35:12.610Z,0.00
2023-01-11T05:36:12.595Z,0.00
2023-01-11T05:37:12.593Z,0.00
2023-01-11T05:38:12.555Z,0.00
2023-01-11T05:39:12.545Z,0.00
2023-01-11T05:40:12.515Z,0.00
2023-01-11T05:41:12.526Z,0.00
2023-01-11T05:42:12.549Z,0.00
2023-01-11T05:43:12.519Z,0.00
2023-01-11T05:44:12.479Z,0.00
2023-01-11T05:45:12.468Z,0.00
2023-01-11T05:46:12.510Z,0.00
2023-01-11T05:47:12.460Z,0.00
2023-01-11T05:48:12.453Z,0.00
2023-01-11T05:49:12.468Z,0.00
2023-01-11T05:50:12.401Z,0.00
2023-01-11T05:51:12.414Z,0.00
2023-01-11T05:52:12.397Z,0.00
2023-01-11T05:53:12.390Z,0.00
2023-01-11T05:54:12.420Z,0.00
2023-01-11T05:55:12.397Z,0.00
2023-01-11T05:56:12.338Z,0.00
2023-01-11T05:57:12.357Z,0.00
2023-01-11T05:58:12.346Z,0.00
2023-01-11T05:59:12.342Z,0.00
2023-01-11T06:00:12.331Z,0.00
2023-01-11T06:01:12.307Z,0.00
2023-01-11T06:02:12.379Z,0.00
2023-01-11T06:03:12.323Z,0.00
2023-01-11T06:04:12.265Z,0.00
2023-01-11T06:05:12.278Z,0.00
2023-01-11T06:06:12.279Z,0.00
2023-01-11T06:07:12.218Z,0.00
2023-01-11T06:08:12.203Z,0.00
2023-01-11T06:09:12.216Z,0.00
2023-01-11T06:10:12.228Z,0.00
2023-01-11T06:11:12.200Z,0.00
2023-01-11T06:12:12.204Z,0.00
2023-01-11T06:13:12.146Z,0.00
2023-01-11T06:14:12.178Z,0.00
2023-01-11T06:15:12.147Z,0.00
2023-01-11T06:16:12.209Z,0.00
2023-01-11T06:17:12.152Z,0.00
2023-01-11T06:18:12.089Z,0.00
2023-01-11T06:19:12.091Z,0.00
2023-01-11T06:20:12.075Z,0.00
2023-01-11T06:21:12.083Z,0.00
2023-01-11T06:22:12.085Z,0.00
2023-01-11T06:23:12.088Z,0.00
2023-01-11T06:24:12.050Z,0.00
2023-01-11T06:25:12.026Z,0.00
2023-01-11T06:26:12.019Z,0.00
2023-01-11T06:27:12.030Z,0.00
2023-01-11T06:28:12.119Z,0.00
2023-01-11T06:29:11.971Z,0.00
2023-01-11T06:30:11.993Z,0.00
2023-01-11T06:31:12.042Z,0.00
2023-01-11T06:32:11.956Z,0.00
2023-01-11T06:33:11.957Z,0.00
2023-01-11T06:34:11.925Z,0.00
2023-01-11T06:35:11.898Z,0.00
2023-01-11T06:36:11.913Z,0.00
2023-01-11T06:37:11.883Z,0.00
2023-01-11T06:38:11.913Z,0.00
2023-01-11T06:39:11.892Z,0.00
2023-01-11T06:40:11.847Z,0.00
2023-01-11T06:41:11.862Z,4.00
2023-01-11T06:42:11.835Z,0.00
2023-01-11T06:43:11.821Z,4.00
2023-01-11T06:44:11.848Z,0.00
2023-01-11T06:45:11.846Z,4.00
2023-01-11T06:46:11.895Z,0.00
2023-01-11T06:47:11.802Z,4.00
2023-01-11T06:48:11.770Z,4.00
2023-01-11T06:49:11.766Z,4.00
2023-01-11T06:50:11.769Z,8.00
2023-01-11T06:51:11.768Z,8.00
2023-01-11T06:52:11.741Z,4.00
2023-01-11T06:53:11.704Z,8.00
2023-01-11T06:54:11.746Z,8.00
2023-01-11T06:55:11.696Z,12.00
2023-01-11T06:56:11.702Z,12.00
2023-01-11T06:57:11.711Z,12.00
2023-01-11T06:58:11.743Z,12.00
2023-01-11T06:59:11.650Z,12.00
2023-01-11T07:00:11.633Z,12.00
2023-01-11T07:01:11.699Z,16.00
2023-01-11T07:02:11.665Z,16.00
2023-01-11T07:03:11.664Z,16.00
2023-01-11T07:04:11.577Z,16.00
2023-01-11T07:05:11.628Z,52.00
2023-01-11T07:06:11.575Z,64.00
2023-01-11T07:07:11.574Z,68.00
2023-01-11T07:08:11.533Z,72.00
2023-01-11T07:09:11.536Z,72.00
2023-01-11T07:10:11.518Z,76.00
2023-01-11T07:11:11.597Z,76.00
2023-01-11T07:12:11.502Z,80.00
2023-01-11T07:13:11.499Z,80.00
2023-01-11T07:14:11.512Z,80.00
2023-01-11T07:15:11.458Z,84.00
2023-01-11T07:16:11.545Z,88.00
2023-01-11T07:17:11.454Z,88.00
2023-01-11T07:18:11.466Z,88.00
2023-01-11T07:19:11.436Z,92.00
2023-01-11T07:20:11.399Z,96.00
2023-01-11T07:21:11.407Z,100.00
2023-01-11T07:22:11.400Z,104.00
2023-01-11T07:23:11.385Z,108.00
2023-01-11T07:24:11.387Z,108.00
2023-01-11T07:25:11.342Z,112.00
2023-01-11T07:26:11.363Z,112.00
2023-01-11T07:27:11.347Z,108.00
2023-01-11T07:28:11.307Z,68.00
2023-01-11T07:29:11.321Z,68.00
2023-01-11T07:30:11.325Z,72.00
2023-01-11T07:31:11.352Z,76.00
2023-01-11T07:32:11.272Z,84.00
2023-01-11T07:33:11.296Z,88.00
2023-01-11T07:34:11.309Z,88.00
2023-01-11T07:35:11.294Z,96.00
2023-01-11T07:36:11.226Z,100.00
2023-01-11T07:37:28.273Z,104.00
2023-01-11T07:38:12.343Z,108.00
2023-01-11T07:39:11.227Z,112.00
2023-01-11T07:40:11.203Z,120.00
2023-01-11T07:41:11.201Z,124.00
2023-01-11T07:42:11.154Z,132.00
2023-01-11T07:43:11.204Z,160.00
2023-01-11T07:44:11.136Z,180.00
2023-01-11T07:45:11.142Z,192.00
2023-01-11T07:46:11.237Z,200.00
2023-01-11T07:47:11.185Z,204.00
2023-01-11T07:48:11.093Z,208.00
2023-01-11T07:49:11.115Z,204.00
2023-01-11T07:50:11.158Z,212.00
2023-01-11T07:51:11.076Z,208.00
2023-01-11T07:52:11.063Z,216.00
2023-01-11T07:53:11.077Z,208.00
2023-01-11T07:54:11.037Z,212.00
2023-01-11T07:55:11.011Z,212.00
2023-01-11T07:56:11.036Z,212.00
2023-01-11T07:57:10.998Z,216.00
2023-01-11T07:58:10.992Z,216.00
2023-01-11T07:59:10.974Z,216.00
2023-01-11T08:00:11.026Z,228.00
2023-01-11T08:01:10.944Z,220.00
2023-01-11T08:02:10.955Z,224.00
2023-01-11T08:03:11.163Z,236.00
2023-01-11T08:04:10.960Z,224.00
2023-01-11T08:05:10.904Z,244.00
2023-01-11T08:06:10.945Z,220.00
2023-01-11T08:07:10.899Z,240.00
2023-01-11T08:08:10.899Z,240.00
2023-01-11T08:09:10.883Z,236.00
2023-01-11T08:10:10.882Z,236.00
2023-01-11T08:11:10.876Z,228.00
2023-01-11T08:12:10.821Z,252.00
2023-01-11T08:13:10.828Z,272.00
2023-01-11T08:14:10.810Z,272.00
2023-01-11T08:15:10.816Z,272.00
2023-01-11T08:16:10.851Z,252.00
2023-01-11T08:17:10.765Z,256.00
2023-01-11T08:18:10.755Z,284.00
2023-01-11T08:19:10.773Z,296.00
2023-01-11T08:20:10.751Z,308.00
2023-01-11T08:21:10.759Z,312.00
2023-01-11T08:22:10.744Z,336.00
2023-01-11T08:23:10.698Z,328.00
2023-01-11T08:24:10.769Z,336.00
2023-01-11T08:25:10.697Z,340.00
2023-01-11T08:26:10.684Z,344.00
2023-01-11T08:27:10.718Z,340.00
2023-01-11T08:28:10.699Z,344.00
2023-01-11T08:29:10.635Z,332.00
2023-01-11T08:30:10.629Z,308.00
2023-01-11T08:31:10.687Z,304.00
2023-01-11T08:32:10.617Z,296.00
2023-01-11T08:33:10.629Z,296.00
2023-01-11T08:34:10.582Z,312.00
2023-01-11T08:35:10.588Z,316.00
2023-01-11T08:36:10.558Z,340.00
2023-01-11T08:37:10.593Z,348.00
2023-01-11T08:38:10.558Z,344.00
2023-01-11T08:39:10.528Z,380.00
2023-01-11T08:40:10.544Z,376.00
2023-01-11T08:41:10.543Z,372.00
2023-01-11T08:42:10.493Z,412.00
2023-01-11T08:43:10.515Z,408.00
2023-01-11T08:44:11.687Z,412.00
2023-01-11T08:45:10.453Z,428.00
2023-01-11T08:46:10.542Z,440.00
2023-01-11T08:47:10.452Z,444.00
2023-01-11T08:48:10.447Z,448.00
2023-01-11T08:49:10.425Z,452.00
2023-01-11T08:50:10.429Z,448.00
2023-01-11T08:51:10.398Z,448.00
2023-01-11T08:52:10.401Z,460.00
2023-01-11T08:53:12.291Z,464.00
2023-01-11T08:54:10.440Z,464.00
2023-01-11T08:55:10.386Z,476.00
2023-01-11T08:56:10.367Z,476.00
2023-01-11T08:57:10.320Z,488.00
2023-01-11T08:58:10.326Z,496.00
2023-01-11T08:59:10.301Z,500.00
2023-01-11T09:00:10.309Z,504.00
2023-01-11T09:01:10.305Z,512.00
2023-01-11T09:02:10.265Z,520.00
2023-01-11T09:03:10.343Z,516.00
2023-01-11T09:04:23.792Z,512.00
2023-01-11T09:05:11.276Z,516.00
2023-01-11T09:06:10.256Z,516.00
2023-01-11T09:07:10.210Z,520.00
2023-01-11T09:08:10.205Z,524.00
2023-01-11T09:09:10.202Z,524.00
2023-01-11T09:10:10.261Z,528.00
2023-01-11T09:11:10.225Z,536.00
2023-01-11T09:12:10.184Z,536.00
2023-01-11T09:13:10.717Z,536.00
2023-01-11T09:14:10.138Z,540.00
2023-01-11T09:15:10.136Z,540.00
2023-01-11T09:16:10.205Z,528.00
2023-01-11T09:17:10.120Z,528.00
2023-01-11T09:18:10.091Z,536.00
2023-01-11T09:19:10.094Z,532.00
2023-01-11T09:20:10.069Z,536.00
2023-01-11T09:21:10.705Z,540.00
2023-01-11T09:22:10.065Z,544.00
2023-01-11T09:23:10.073Z,548.00
2023-01-11T09:24:10.021Z,552.00
2023-01-11T09:25:10.025Z,560.00
2023-01-11T09:26:10.019Z,556.00
2023-01-11T09:27:10.030Z,552.00
2023-01-11T09:28:09.993Z,560.00
2023-01-11T09:29:10.038Z,564.00
2023-01-11T09:30:09.970Z,564.00
2023-01-11T09:31:09.965Z,584.00
2023-01-11T09:32:10.264Z,596.00
2023-01-11T09:33:09.928Z,596.00
2023-01-11T09:34:09.934Z,612.00
2023-01-11T09:35:09.937Z,612.00
2023-01-11T09:36:09.889Z,600.00
2023-01-11T09:37:09.873Z,580.00
2023-01-11T09:38:09.891Z,584.00
2023-01-11T09:39:09.869Z,580.00
2023-01-11T09:40:11.410Z,548.00
2023-01-11T09:41:09.869Z,532.00
2023-01-11T09:42:09.841Z,564.00
2023-01-11T09:43:09.849Z,540.00
2023-01-11T09:44:09.823Z,544.00
2023-01-11T09:45:09.799Z,576.00
2023-01-11T09:46:09.818Z,552.00
2023-01-11T09:47:09.764Z,528.00
2023-01-11T09:48:09.770Z,528.00
2023-01-11T09:49:09.755Z,508.00
2023-01-11T09:50:09.730Z,512.00
2023-01-11T09:51:09.742Z,516.00
2023-01-11T09:52:09.712Z,524.00
2023-01-11T09:53:09.713Z,516.00
2023-01-11T09:54:09.707Z,528.00
2023-01-11T09:55:09.703Z,540.00
2023-01-11T09:56:09.668Z,528.00
2023-01-11T09:57:09.675Z,528.00
2023-01-11T09:58:09.715Z,496.00
2023-01-11T09:59:09.642Z,460.00
2023-01-11T10:00:09.628Z,484.00
2023-01-11T10:01:09.689Z,472.00
2023-01-11T10:02:09.619Z,464.00
2023-01-11T10:03:09.620Z,460.00
2023-01-11T10:04:09.587Z,464.00
2023-01-11T10:05:09.677Z,468.00
2023-01-11T10:06:09.570Z,464.00
2023-01-11T10:07:09.552Z,464.00
2023-01-11T10:18:29.957Z,464.00
2023-01-11T10:18:30.321Z,460.00
2023-01-11T10:18:38.801Z,456.00
2023-01-11T10:18:39.852Z,464.00
2023-01-11T10:18:40.560Z,464.00
2023-01-11T10:19:37.706Z,448.00
2023-01-11T10:20:10.488Z,444.00
2023-01-11T10:21:09.464Z,444.00
2023-01-11T10:22:09.373Z,444.00
2023-01-11T10:23:09.365Z,448.00
2023-01-11T10:24:09.363Z,448.00
2023-01-11T10:25:11.323Z,444.00
2023-01-11T10:26:09.388Z,440.00
2023-01-11T10:27:09.459Z,428.00
2023-01-11T10:28:09.361Z,416.00
2023-01-11T10:29:09.322Z,432.00
2023-01-11T10:30:09.360Z,436.00
2023-01-11T10:31:09.329Z,412.00
2023-01-11T10:32:09.261Z,424.00
2023-01-11T10:33:09.265Z,416.00
2023-01-11T10:34:09.265Z,416.00
2023-01-11T10:35:09.261Z,416.00
2023-01-11T10:36:09.242Z,412.00
2023-01-11T10:37:09.240Z,432.00
2023-01-11T10:38:09.195Z,428.00
2023-01-11T10:39:09.237Z,416.00
2023-01-11T10:40:09.182Z,424.00
2023-01-11T10:41:09.198Z,432.00
2023-01-11T10:42:09.177Z,428.00
2023-01-11T10:43:09.240Z,444.00
2023-01-11T10:44:09.130Z,464.00
2023-01-11T10:45:09.127Z,492.00
2023-01-11T10:46:09.174Z,460.00
2023-01-11T10:47:09.147Z,464.00
2023-01-11T10:48:09.107Z,444.00
2023-01-11T10:49:09.075Z,432.00
2023-01-11T10:50:09.061Z,432.00
2023-01-11T10:51:09.078Z,424.00
2023-01-11T10:53:09.083Z,456.00
2023-01-11T10:54:09.056Z,456.00
2023-01-11T10:55:09.067Z,464.00
2023-01-11T10:56:08.996Z,472.00
2023-01-11T10:57:09.143Z,476.00
2023-01-11T10:58:09.023Z,480.00
2023-01-11T10:59:09.013Z,480.00
2023-01-11T11:00:09.000Z,480.00
2023-01-11T11:01:09.011Z,476.00
2023-01-11T11:02:09.015Z,480.00
2023-01-11T11:03:08.971Z,484.00
2023-01-11T11:04:08.953Z,496.00
2023-01-11T11:05:08.929Z,500.00
2023-01-11T11:06:08.923Z,508.00
2023-01-11T11:07:08.880Z,516.00
2023-01-11T11:08:08.945Z,524.00
2023-01-11T11:09:08.876Z,532.00
2023-01-11T11:10:08.872Z,548.00
2023-01-11T11:11:08.865Z,592.00
2023-01-11T11:12:08.847Z,624.00
2023-01-11T11:13:08.811Z,644.00
2023-01-11T11:14:08.816Z,644.00
2023-01-11T11:15:08.825Z,648.00
2023-01-11T11:16:08.859Z,676.00
2023-01-11T11:17:08.795Z,696.00
2023-01-11T11:18:08.847Z,708.00
2023-01-11T11:19:08.751Z,712.00
2023-01-11T11:20:08.742Z,712.00
2023-01-11T11:21:08.825Z,716.00
2023-01-11T11:22:08.733Z,720.00
2023-01-11T11:23:08.739Z,724.00
2023-01-11T11:24:08.690Z,748.00
2023-01-11T11:25:08.689Z,768.00
2023-01-11T11:26:08.679Z,788.00
2023-01-11T11:27:08.786Z,796.00
2023-01-11T11:28:08.700Z,808.00
2023-01-11T11:29:08.632Z,820.00
2023-01-11T11:30:08.631Z,820.00
2023-01-11T11:31:08.636Z,828.00
2023-01-11T11:32:08.600Z,784.00
2023-01-11T11:33:08.628Z,784.00
2023-01-11T11:34:08.618Z,812.00
2023-01-11T11:35:08.565Z,792.00
2023-01-11T11:36:08.592Z,780.00
2023-01-11T11:37:08.569Z,764.00
2023-01-11T11:38:08.534Z,760.00
2023-01-11T11:39:08.527Z,760.00
2023-01-11T11:40:08.511Z,760.00
2023-01-11T11:41:08.507Z,752.00
2023-01-11T11:42:08.526Z,748.00
2023-01-11T11:43:08.517Z,740.00
2023-01-11T11:44:08.485Z,692.00
2023-01-11T11:45:08.502Z,672.00
2023-01-11T11:46:08.522Z,668.00
2023-01-11T11:47:08.490Z,660.00
2023-01-11T11:48:08.420Z,644.00
2023-01-11T11:49:08.419Z,644.00
2023-01-11T11:50:08.435Z,644.00
2023-01-11T11:51:08.424Z,636.00
2023-01-11T11:52:08.428Z,672.00
2023-01-11T11:53:08.381Z,664.00
2023-01-11T11:54:08.374Z,652.00
2023-01-11T11:55:08.354Z,632.00
2023-01-11T11:56:08.358Z,624.00
2023-01-11T11:57:08.367Z,628.00
2023-01-11T11:58:08.323Z,628.00
2023-01-11T11:59:08.295Z,624.00
2023-01-11T12:00:08.316Z,612.00
2023-01-11T12:01:08.288Z,592.00
2023-01-11T12:02:08.319Z,552.00
2023-01-11T12:03:08.300Z,516.00
2023-01-11T12:04:08.242Z,496.00
2023-01-11T12:05:08.283Z,468.00
2023-01-11T12:06:08.268Z,456.00
2023-01-11T12:07:08.232Z,464.00
2023-01-11T12:08:08.233Z,540.00
2023-01-11T12:09:08.187Z,552.00
2023-01-11T12:10:08.191Z,536.00
2023-01-11T12:11:08.182Z,544.00
2023-01-11T12:12:08.166Z,544.00
2023-01-11T12:13:08.166Z,532.00
2023-01-11T12:14:08.163Z,520.00
2023-01-11T12:15:08.120Z,560.00
2023-01-11T12:16:08.129Z,576.00
2023-01-11T12:17:08.111Z,512.00
2023-01-11T12:18:08.111Z,508.00
2023-01-11T12:19:08.125Z,508.00
2023-01-11T12:20:08.125Z,552.00
2023-01-11T12:21:08.066Z,552.00
2023-01-11T12:22:08.066Z,532.00
2023-01-11T12:23:08.078Z,544.00
2023-01-11T12:24:08.051Z,532.00
2023-01-11T12:25:08.053Z,472.00
2023-01-11T12:26:07.995Z,472.00
2023-01-11T12:27:08.076Z,508.00
2023-01-11T12:28:07.987Z,476.00
2023-01-11T12:29:07.984Z,488.00
2023-01-11T12:30:07.992Z,492.00
2023-01-11T12:31:08.042Z,492.00
2023-01-11T12:32:07.943Z,536.00
2023-01-11T12:33:07.923Z,504.00
2023-01-11T12:34:07.910Z,492.00
2023-01-11T12:35:07.909Z,492.00
2023-01-11T12:36:07.904Z,492.00
2023-01-11T12:37:07.907Z,540.00
2023-01-11T12:38:07.896Z,520.00
2023-01-11T12:39:07.867Z,508.00
2023-01-11T12:40:07.891Z,508.00
2023-01-11T12:41:08.708Z,524.00
2023-01-11T12:42:07.871Z,508.00
2023-01-11T12:43:07.808Z,516.00
2023-01-11T12:44:07.791Z,532.00
2023-01-11T12:45:07.827Z,548.00
2023-01-11T12:46:07.828Z,552.00
2023-01-11T12:47:07.776Z,572.00
2023-01-11T12:48:07.774Z,556.00
2023-01-11T12:49:07.755Z,580.00
2023-01-11T12:50:07.759Z,564.00
2023-01-11T12:51:07.774Z,532.00
2023-01-11T12:52:07.726Z,520.00
2023-01-11T12:53:07.731Z,520.00
2023-01-11T12:54:07.702Z,500.00
2023-01-11T12:55:07.708Z,488.00
2023-01-11T12:56:07.671Z,496.00
2023-01-11T12:57:07.658Z,488.00
2023-01-11T12:58:07.673Z,508.00
2023-01-11T12:59:07.652Z,528.00
2023-01-11T13:00:07.697Z,488.00
2023-01-11T13:01:07.768Z,488.00
2023-01-11T13:02:07.663Z,476.00